Time;durP1;ratioP1;P1;durP2;ratioP2;P2;SDS_P1;SDS_P2;PMS_P1;PMS_P2;Temp;Humidity;BMP_temperature;BMP_pressure;BME280_temperature;BME280_humidity;BME280_pressure;Samples;Min_cycle;Max_cycle;Signal;HPM_P1;HPM_P2
2022/01/09 00:01:40;;;;;;;23.02;2.53;;;6.20;99.90;;;;;;5044628;28;20044;-71
2022/01/09 00:04:06;;;;;;;22.98;2.15;;;6.20;99.90;;;;;;5044335;28;20032;-71
2022/01/09 00:06:32;;;;;;;15.68;2.10;;;7.20;99.90;;;;;;5043468;28;20060;-71
2022/01/09 00:08:58;;;;;;;13.15;2.20;;;6.20;99.90;;;;;;5044623;28;20030;-72
2022/01/09 00:11:27;;;;;;;18.85;2.10;;;7.80;99.90;;;;;;5030765;28;20104;-71
2022/01/09 00:13:54;;;;;;;14.85;2.25;;;6.30;99.90;;;;;;5043090;28;20029;-71
2022/01/09 00:16:21;;;;;;;15.65;2.10;;;6.30;99.90;;;;;;5035865;28;20056;-72
2022/01/09 00:18:48;;;;;;;14.25;1.95;;;5.90;99.90;;;;;;5034979;28;20030;-71
2022/01/09 00:21:14;;;;;;;10.63;2.10;;;6.60;99.90;;;;;;5032983;28;20515;-72
2022/01/09 00:23:41;;;;;;;16.33;1.88;;;6.20;99.90;;;;;;5035243;28;20037;-72
2022/01/09 00:26:08;;;;;;;17.05;2.05;;;;;;;;;;5033493;28;20028;-71
2022/01/09 00:28:34;;;;;;;14.65;1.88;;;5.80;99.90;;;;;;5041949;28;20033;-71
2022/01/09 00:31:00;;;;;;;18.63;2.83;;;6.40;99.90;;;;;;5044601;28;20021;-72
2022/01/09 00:33:26;;;;;;;19.92;1.88;;;;;;;;;;5042835;28;20438;-71
2022/01/09 00:35:52;;;;;;;17.08;2.35;;;6.20;99.90;;;;;;5039705;28;20128;-71
2022/01/09 00:38:18;;;;;;;16.60;1.95;;;6.20;99.90;;;;;;5045828;28;20033;-72
2022/01/09 00:40:44;;;;;;;19.63;2.53;;;;;;;;;;5033382;28;20228;-72
2022/01/09 00:43:10;;;;;;;12.70;2.42;;;6.50;99.90;;;;;;5043098;28;20116;-72
2022/01/09 00:45:37;;;;;;;20.33;3.05;;;6.70;99.90;;;;;;5047217;28;20520;-71
2022/01/09 00:48:03;;;;;;;14.77;1.90;;;;;;;;;;5048154;28;20029;-71
2022/01/09 00:50:29;;;;;;;16.30;2.40;;;5.70;99.90;;;;;;5034380;28;20044;-71
2022/01/09 00:52:55;;;;;;;22.45;2.97;;;;;;;;;;5046278;28;20017;-72
2022/01/09 00:55:21;;;;;;;17.70;1.65;;;;;;;;;;5039016;28;20029;-72
2022/01/09 00:57:47;;;;;;;15.55;1.80;;;6.30;99.90;;;;;;5036572;28;20669;-71
2022/01/09 01:00:14;;;;;;;17.58;2.67;;;6.00;99.90;;;;;;5035887;28;20112;-71
2022/01/09 01:02:41;;;;;;;15.57;1.92;;;6.30;99.90;;;;;;5047944;28;20064;-71
2022/01/09 01:05:08;;;;;;;17.30;2.17;;;6.30;99.90;;;;;;5036722;28;20018;-71
2022/01/09 01:07:34;;;;;;;14.30;1.80;;;5.70;99.90;;;;;;5046545;28;20831;-72
2022/01/09 01:10:00;;;;;;;16.85;1.92;;;;;;;;;;5042140;28;20029;-72
2022/01/09 01:12:30;;;;;;;17.52;1.90;;;5.90;99.90;;;;;;5045838;28;20024;-71
2022/01/09 01:14:56;;;;;;;24.80;2.33;;;;;;;;;;5033630;28;20429;-72
2022/01/09 01:17:23;;;;;;;16.25;1.90;;;6.40;99.90;;;;;;5043334;28;20108;-72
2022/01/09 01:19:49;;;;;;;17.02;2.03;;;;;;;;;;5037133;28;20022;-72
2022/01/09 01:22:15;;;;;;;20.90;2.53;;;6.00;99.90;;;;;;5040247;28;20064;-72
2022/01/09 01:24:46;;;;;;;20.15;2.28;;;5.40;99.90;;;;;;5043770;28;20017;-72
2022/01/09 01:27:12;;;;;;;15.23;2.95;;;;;;;;;;5035573;28;20025;-72
2022/01/09 01:29:38;;;;;;;15.88;1.83;;;6.00;99.90;;;;;;5043375;28;20045;-72
2022/01/09 01:32:05;;;;;;;19.63;2.25;;;6.40;99.90;;;;;;5037133;28;20041;-72
2022/01/09 01:34:33;;;;;;;18.27;1.88;;;;;;;;;;5035789;28;20400;-72
2022/01/09 01:36:59;;;;;;;17.90;2.05;;;;;;;;;;5041268;28;20033;-72
2022/01/09 01:39:24;;;;;;;19.20;1.83;;;7.50;99.90;;;;;;5045959;28;20025;-72
2022/01/09 01:41:50;;;;;;;16.17;1.80;;;;;;;;;;5044670;28;20044;-72
2022/01/09 01:44:16;;;;;;;17.88;2.55;;;5.50;99.90;;;;;;5034307;28;20063;-72
2022/01/09 01:46:42;;;;;;;19.13;2.50;;;;;;;;;;5045607;28;20037;-72
2022/01/09 01:49:12;;;;;;;16.05;1.88;;;6.30;99.90;;;;;;5040078;28;20391;-72
2022/01/09 01:51:41;;;;;;;16.52;2.15;;;;;;;;;;5038208;28;20420;-72
2022/01/09 01:54:09;;;;;;;15.98;2.33;;;6.90;99.90;;;;;;5045825;28;20029;-72
2022/01/09 01:56:35;;;;;;;12.82;2.00;;;;;;;;;;5031701;28;20124;-71
2022/01/09 01:59:01;;;;;;;19.08;2.70;;;;;;;;;;5044841;28;20040;-72
2022/01/09 02:01:27;;;;;;;25.65;2.80;;;7.10;99.90;;;;;;5039114;28;20745;-72
2022/01/09 02:03:53;;;;;;;14.43;1.90;;;;;;;;;;5036497;28;20101;-72
2022/01/09 02:06:20;;;;;;;17.00;2.05;;;9.60;99.90;;;;;;5046483;28;20028;-72
2022/01/09 02:08:46;;;;;;;12.70;1.75;;;;;;;;;;5046245;28;20519;-74
2022/01/09 02:11:12;;;;;;;15.85;1.95;;;7.20;99.90;;;;;;5047185;28;20024;-72
2022/01/09 02:13:45;;;;;;;19.55;2.50;;;6.40;99.90;;;;;;5035487;28;20032;-72
2022/01/09 02:16:17;;;;;;;13.45;1.80;;;;;;;;;;5038766;28;20443;-72
2022/01/09 02:18:46;;;;;;;12.70;1.70;;;7.40;99.90;;;;;;5037918;28;20033;-72
2022/01/09 02:21:14;;;;;;;8.65;1.27;;;7.40;99.90;;;;;;5034693;28;20036;-72
2022/01/09 02:23:41;;;;;;;9.75;2.33;;;7.40;99.90;;;;;;5045254;28;20026;-72
2022/01/09 02:26:08;;;;;;;11.05;1.98;;;7.00;99.90;;;;;;5035035;28;20022;-72
2022/01/09 02:28:33;;;;;;;15.85;1.90;;;7.50;99.90;;;;;;5045748;28;20707;-72
2022/01/09 02:30:59;;;;;;;11.82;1.65;;;7.00;99.90;;;;;;5040463;28;20540;-72
2022/01/09 02:33:25;;;;;;;15.25;1.70;;;6.30;99.90;;;;;;5035117;28;20021;-72
2022/01/09 02:35:52;;;;;;;15.00;1.70;;;7.30;99.90;;;;;;5043131;28;20056;-72
2022/01/09 02:38:19;;;;;;;11.75;1.50;;;7.40;99.90;;;;;;5047476;28;20032;-72
2022/01/09 02:40:53;;;;;;;14.95;1.92;;;7.70;99.90;;;;;;5035194;28;20041;-72
2022/01/09 02:43:20;;;;;;;14.13;1.98;;;7.70;99.90;;;;;;5042929;28;20033;-72
2022/01/09 02:45:50;;;;;;;16.00;1.70;;;;;;;;;;5042126;28;20025;-72
2022/01/09 02:48:16;;;;;;;17.13;1.90;;;7.00;99.90;;;;;;5034786;28;20178;-72
2022/01/09 02:50:54;;;;;;;14.68;1.52;;;;;;;;;;5030288;28;20572;-72
2022/01/09 02:53:21;;;;;;;14.75;2.10;;;9.60;99.90;;;;;;5045187;28;20021;-72
2022/01/09 02:55:48;;;;;;;14.50;1.65;;;7.50;99.90;;;;;;5044267;28;20021;-72
2022/01/09 02:58:15;;;;;;;16.17;2.17;;;8.90;99.90;;;;;;5045269;28;20032;-72
2022/01/09 03:00:43;;;;;;;17.00;2.30;;;8.10;99.90;;;;;;5042007;28;20520;-72
2022/01/09 03:03:09;;;;;;;15.85;1.70;;;7.00;99.90;;;;;;5033188;28;20500;-72
2022/01/09 03:05:35;;;;;;;18.30;1.70;;;7.60;99.90;;;;;;5041487;28;20029;-72
2022/01/09 03:08:01;;;;;;;15.63;1.58;;;7.00;99.90;;;;;;5034422;28;20036;-72
2022/01/09 03:10:28;;;;;;;12.98;1.55;;;6.60;99.90;;;;;;5041630;28;20527;-71
2022/01/09 03:12:56;;;;;;;13.95;1.75;;;7.20;99.90;;;;;;5043327;28;20029;-72
2022/01/09 03:15:22;;;;;;;11.52;1.80;;;6.50;99.90;;;;;;5045029;28;20055;-72
2022/01/09 03:17:48;;;;;;;14.15;1.58;;;6.20;99.90;;;;;;5044127;28;20030;-72
2022/01/09 03:20:19;;;;;;;12.23;1.65;;;6.80;99.90;;;;;;5032914;28;20071;-72
2022/01/09 03:22:46;;;;;;;14.90;1.60;;;6.80;99.90;;;;;;5037797;28;20582;-72
2022/01/09 03:25:12;;;;;;;15.48;2.00;;;6.70;99.90;;;;;;5039843;28;20033;-72
2022/01/09 03:27:39;;;;;;;13.32;1.80;;;7.20;99.90;;;;;;5043998;28;20037;-72
2022/01/09 03:30:08;;;;;;;19.20;2.33;;;6.90;99.90;;;;;;5045565;28;20061;-72
2022/01/09 03:32:36;;;;;;;14.63;1.40;;;7.00;99.90;;;;;;5045367;28;20511;-72
2022/01/09 03:35:06;;;;;;;18.65;1.92;;;6.80;99.90;;;;;;5047019;28;20467;-72
2022/01/09 03:37:32;;;;;;;15.05;1.80;;;;;;;;;;5032425;28;20580;-72
2022/01/09 03:39:58;;;;;;;11.27;1.80;;;6.70;99.90;;;;;;5033820;28;20025;-72
2022/01/09 03:42:24;;;;;;;16.73;2.10;;;;;;;;;;5039580;28;20043;-72
2022/01/09 03:44:49;;;;;;;20.00;2.17;;;7.50;99.90;;;;;;5030145;28;20109;-72
2022/01/09 03:47:15;;;;;;;15.88;1.85;;;;;;;;;;5049350;28;20104;-72
2022/01/09 03:49:42;;;;;;;18.02;2.30;;;;;;;;;;5034007;28;20079;-72
2022/01/09 03:52:08;;;;;;;17.73;1.90;;;6.70;99.90;;;;;;5039112;28;20374;-72
2022/01/09 03:54:36;;;;;;;22.42;2.50;;;6.70;99.90;;;;;;5044520;28;20032;-72
2022/01/09 03:57:03;;;;;;;15.52;2.65;;;6.40;99.90;;;;;;5044839;28;20566;-72
2022/01/09 03:59:28;;;;;;;15.95;1.65;;;6.50;99.90;;;;;;5046513;28;20064;-72
2022/01/09 04:01:54;;;;;;;20.50;2.03;;;;;;;;;;5033693;28;20097;-72
2022/01/09 04:04:20;;;;;;;19.70;2.80;;;7.00;99.90;;;;;;5042860;28;20029;-72
2022/01/09 04:06:49;;;;;;;18.95;2.40;;;;;;;;;;5039892;28;20032;-72
2022/01/09 04:09:20;;;;;;;21.67;1.98;;;7.10;99.90;;;;;;5032493;28;20022;-72
2022/01/09 04:11:49;;;;;;;;;;;7.10;99.90;;;;;;5029593;28;20032;-72
2022/01/09 04:14:16;;;;;;;17.20;1.90;;;;;;;;;;5044997;28;19904;-72
2022/01/09 04:16:42;;;;;;;19.38;2.10;;;;;;;;;;5040351;28;20060;-72
2022/01/09 04:19:12;;;;;;;18.50;2.65;;;7.20;99.90;;;;;;5041363;28;20121;-72
2022/01/09 04:21:42;;;;;;;12.32;1.88;;;7.10;99.90;;;;;;5044524;28;20634;-72
2022/01/09 04:24:09;;;;;;;20.98;2.70;;;7.10;99.90;;;;;;5036112;28;20559;-72
2022/01/09 04:26:35;;;;;;;18.42;2.00;;;7.50;99.90;;;;;;5036212;28;20128;-72
2022/01/09 04:29:01;;;;;;;16.63;1.90;;;7.80;99.90;;;;;;5034072;28;20104;-72
2022/01/09 04:31:26;;;;;;;19.33;2.28;;;7.20;99.90;;;;;;5036791;28;20068;-72
2022/01/09 04:33:52;;;;;;;22.25;2.78;;;7.00;99.90;;;;;;5039011;28;20017;-72
2022/01/09 04:36:18;;;;;;;22.23;2.47;;;7.10;99.90;;;;;;5048694;28;20029;-72
2022/01/09 04:38:44;;;;;;;20.27;2.92;;;7.10;99.90;;;;;;5032545;28;20066;-72
2022/01/09 04:41:09;;;;;;;26.23;2.85;;;7.00;99.90;;;;;;5047939;28;20040;-72
2022/01/09 04:43:35;;;;;;;18.50;2.08;;;7.00;99.90;;;;;;5037412;28;20022;-72
2022/01/09 04:46:01;;;;;;;20.58;2.80;;;7.40;99.90;;;;;;5038998;28;20378;-72
2022/01/09 04:48:27;;;;;;;18.73;2.13;;;;;;;;;;5036588;28;20017;-71
2022/01/09 04:50:53;;;;;;;19.40;2.78;;;7.50;99.90;;;;;;5032548;28;20405;-72
2022/01/09 04:53:20;;;;;;;13.60;2.97;;;6.80;99.90;;;;;;5047848;28;20524;-72
2022/01/09 04:55:48;;;;;;;18.10;2.42;;;6.00;99.90;;;;;;5037619;28;20056;-72
2022/01/09 04:58:14;;;;;;;15.95;2.00;;;6.80;99.90;;;;;;5040016;28;20511;-72
2022/01/09 05:00:40;;;;;;;20.73;1.95;;;;;;;;;;5036368;28;20101;-72
2022/01/09 05:03:06;;;;;;;18.67;2.42;;;7.30;99.90;;;;;;5035430;28;20037;-72
2022/01/09 05:05:33;;;;;;;16.10;1.98;;;7.00;99.90;;;;;;5033504;28;20617;-72
2022/01/09 05:07:59;;;;;;;10.82;2.15;;;6.80;99.90;;;;;;5036271;28;20036;-72
2022/01/09 05:10:25;;;;;;;14.95;2.05;;;6.50;99.90;;;;;;5036425;28;20036;-71
2022/01/09 05:12:51;;;;;;;16.00;1.90;;;5.30;99.90;;;;;;5036790;28;20025;-72
2022/01/09 05:15:19;;;;;;;17.10;1.98;;;6.80;99.90;;;;;;5044713;28;20035;-72
2022/01/09 05:17:45;;;;;;;14.35;1.63;;;7.10;99.90;;;;;;5046874;28;20029;-71
2022/01/09 05:20:12;;;;;;;15.70;2.00;;;6.80;99.90;;;;;;5032761;28;20069;-72
2022/01/09 05:22:38;;;;;;;18.25;1.70;;;6.20;99.90;;;;;;5035932;28;20052;-72
2022/01/09 05:25:09;;;;;;;14.13;1.52;;;6.70;99.90;;;;;;5038311;28;20370;-72
2022/01/09 05:27:35;;;;;;;11.77;1.65;;;6.60;99.90;;;;;;5036551;28;20025;-72
2022/01/09 05:30:03;;;;;;;15.52;2.22;;;6.60;99.90;;;;;;5043053;28;20025;-72
2022/01/09 05:32:29;;;;;;;17.77;2.05;;;;;;;;;;5033639;28;20048;-72
2022/01/09 05:34:55;;;;;;;15.73;1.92;;;;;;;;;;5036892;28;20025;-72
2022/01/09 05:37:21;;;;;;;14.63;1.27;;;6.80;99.90;;;;;;5044276;28;20029;-72
2022/01/09 05:39:47;;;;;;;11.75;1.20;;;;;;;;;;5040970;28;20079;-72
2022/01/09 05:42:14;;;;;;;17.48;2.08;;;6.70;99.90;;;;;;5035304;28;20060;-72
2022/01/09 05:44:40;;;;;;;21.55;2.20;;;5.40;99.90;;;;;;5041190;28;20025;-72
2022/01/09 05:47:06;;;;;;;14.85;1.85;;;6.20;99.90;;;;;;5050052;28;20021;-71
2022/01/09 05:49:32;;;;;;;14.77;1.88;;;;;;;;;;5038235;28;20022;-72
2022/01/09 05:51:58;;;;;;;14.18;1.50;;;;;;;;;;5043744;28;20029;-72
2022/01/09 05:54:24;;;;;;;20.33;1.90;;;;;;;;;;5037961;28;20480;-72
2022/01/09 05:56:53;;;;;;;20.27;1.92;;;6.50;99.90;;;;;;5040121;28;20025;-72
2022/01/09 05:59:19;;;;;;;18.10;1.98;;;7.40;99.90;;;;;;5033335;28;20030;-72
2022/01/09 06:01:46;;;;;;;13.25;1.35;;;6.50;99.90;;;;;;5034410;28;20049;-72
2022/01/09 06:04:11;;;;;;;10.75;1.58;;;6.90;99.90;;;;;;5035933;28;20385;-72
2022/01/09 06:06:38;;;;;;;14.60;1.65;;;;;;;;;;5040671;28;20033;-72
2022/01/09 06:09:04;;;;;;;14.13;1.77;;;4.80;99.90;;;;;;5036748;28;20021;-72
2022/01/09 06:11:29;;;;;;;11.57;1.50;;;7.00;99.90;;;;;;5032756;28;20024;-72
2022/01/09 06:13:55;;;;;;;17.67;1.80;;;6.40;99.90;;;;;;5035192;28;20029;-72
2022/01/09 06:16:22;;;;;;;15.18;1.70;;;6.40;99.90;;;;;;5041588;28;20568;-72
2022/01/09 06:18:48;;;;;;;10.93;1.70;;;5.70;99.90;;;;;;5042972;28;20660;-73
2022/01/09 06:21:14;;;;;;;10.95;1.17;;;7.90;99.90;;;;;;5034730;28;20036;-73
2022/01/09 06:23:40;;;;;;;11.80;1.75;;;;;;;;;;5032908;28;20041;-73
2022/01/09 06:26:06;;;;;;;11.18;1.33;;;;;;;;;;5035146;28;20544;-73
2022/01/09 06:28:32;;;;;;;12.60;1.75;;;5.90;99.90;;;;;;5035252;28;20033;-72
2022/01/09 06:30:58;;;;;;;14.52;1.75;;;3.90;99.90;;;;;;5034842;28;20564;-72
2022/01/09 06:33:24;;;;;;;11.48;1.85;;;;;;;;;;5034908;28;20031;-72
2022/01/09 06:35:49;;;;;;;14.13;1.52;;;7.20;99.90;;;;;;5043828;28;20370;-72
2022/01/09 06:38:15;;;;;;;18.42;1.88;;;7.00;99.90;;;;;;5032908;28;20029;-73
2022/01/09 06:40:41;;;;;;;14.93;1.95;;;7.20;99.90;;;;;;5044316;28;20056;-72
2022/01/09 06:43:07;;;;;;;12.35;1.60;;;6.50;99.90;;;;;;5045469;28;20496;-71
2022/01/09 06:45:34;;;;;;;16.33;1.70;;;6.40;99.90;;;;;;5045690;28;20025;-72
2022/01/09 06:48:02;;;;;;;14.25;1.70;;;;;;;;;;5045960;28;20025;-72
2022/01/09 06:50:28;;;;;;;13.65;1.77;;;7.30;99.90;;;;;;5032216;28;20076;-72
2022/01/09 06:52:54;;;;;;;17.75;2.15;;;7.00;99.90;;;;;;5034470;28;20033;-72
2022/01/09 06:55:20;;;;;;;12.45;1.70;;;6.80;99.90;;;;;;5038282;28;20036;-72
2022/01/09 06:57:46;;;;;;;14.90;1.33;;;7.50;99.90;;;;;;5041360;28;20020;-69
2022/01/09 07:00:15;;;;;;;16.92;1.60;;;6.90;99.90;;;;;;5041253;28;20136;-70
2022/01/09 07:02:41;;;;;;;10.80;1.83;;;7.00;99.90;;;;;;5055981;28;20045;-70
2022/01/09 07:05:07;;;;;;;15.75;2.05;;;;;;;;;;5050294;28;20032;-71
2022/01/09 07:07:33;;;;;;;15.18;2.22;;;7.20;99.90;;;;;;5045303;28;20052;-72
2022/01/09 07:09:58;;;;;;;15.80;2.30;;;6.40;99.90;;;;;;5044453;28;20021;-71
2022/01/09 07:12:25;;;;;;;19.00;1.95;;;;;;;;;;5044744;28;20024;-71
2022/01/09 07:14:50;;;;;;;13.50;1.63;;;6.50;99.90;;;;;;5045957;28;20028;-71
2022/01/09 07:17:17;;;;;;;14.30;1.52;;;;;;;;;;5050655;28;20025;-71
2022/01/09 07:19:42;;;;;;;14.18;1.65;;;6.70;99.90;;;;;;5043895;28;20442;-71
2022/01/09 07:22:08;;;;;;;11.00;1.60;;;5.80;99.90;;;;;;5043991;28;20124;-70
2022/01/09 07:24:34;;;;;;;12.07;1.80;;;6.50;99.90;;;;;;5045721;28;20563;-71
2022/01/09 07:27:00;;;;;;;12.57;1.70;;;6.30;99.90;;;;;;5045099;28;20063;-70
2022/01/09 07:29:26;;;;;;;17.15;2.00;;;6.50;99.90;;;;;;5051523;28;20028;-70
2022/01/09 07:31:52;;;;;;;16.42;1.60;;;;;;;;;;5046835;28;20029;-72
2022/01/09 07:34:19;;;;;;;9.15;1.30;;;6.30;99.90;;;;;;5050167;28;20025;-70
2022/01/09 07:36:45;;;;;;;11.13;1.55;;;7.40;99.90;;;;;;5043479;28;20120;-68
2022/01/09 07:39:11;;;;;;;12.82;1.60;;;7.60;99.90;;;;;;5045154;28;20111;-71
2022/01/09 07:41:37;;;;;;;16.80;1.88;;;6.50;99.90;;;;;;5056592;28;20144;-70
2022/01/09 07:44:03;;;;;;;14.02;1.80;;;;;;;;;;5044108;28;20032;-71
2022/01/09 07:46:29;;;;;;;21.98;2.35;;;;;;;;;;5044406;28;20028;-71
2022/01/09 07:48:55;;;;;;;9.30;1.33;;;6.40;99.90;;;;;;5040283;28;20034;-70
2022/01/09 07:51:21;;;;;;;12.57;1.60;;;;;;;;;;5044435;28;20096;-69
2022/01/09 07:53:47;;;;;;;16.30;1.92;;;5.90;99.90;;;;;;5049293;28;20054;-69
2022/01/09 07:56:13;;;;;;;17.90;1.80;;;7.60;99.90;;;;;;5033636;28;20061;-70
2022/01/09 07:58:39;;;;;;;15.68;3.35;;;6.70;99.90;;;;;;5049468;28;20021;-69
2022/01/09 08:01:05;;;;;;;22.35;4.03;;;;;;;;;;5037060;28;20057;-70
2022/01/09 08:03:33;;;;;;;16.15;2.15;;;5.90;99.90;;;;;;5048459;28;20055;-68
2022/01/09 08:06:00;;;;;;;16.67;2.05;;;;;;;;;;5049115;28;20108;-69
2022/01/09 08:08:26;;;;;;;10.35;1.80;;;;;;;;;;5061114;28;20029;-69
2022/01/09 08:10:52;;;;;;;14.88;1.70;;;6.40;99.90;;;;;;5057998;28;20021;-71
2022/01/09 08:13:18;;;;;;;12.90;1.88;;;5.90;99.90;;;;;;5043841;28;20092;-71
2022/01/09 08:15:44;;;;;;;28.60;7.57;;;6.80;99.90;;;;;;5048088;28;20014;-71
2022/01/09 08:18:10;;;;;;;15.10;4.63;;;;;;;;;;5036857;28;20033;-70
2022/01/09 08:20:36;;;;;;;52.13;21.35;;;7.00;99.90;;;;;;5037159;28;20021;-71
2022/01/09 08:23:02;;;;;;;118.63;53.60;;;6.90;99.90;;;;;;5043463;28;20037;-70
2022/01/09 08:25:28;;;;;;;568.42;267.88;;;6.70;99.90;;;;;;5034103;28;20025;-70
2022/01/09 08:27:55;;;;;;;30.83;9.43;;;5.70;99.90;;;;;;5028743;28;20021;-69
2022/01/09 08:30:21;;;;;;;12.52;2.30;;;6.90;99.90;;;;;;5040383;28;20029;-70
2022/01/09 08:32:49;;;;;;;15.88;2.03;;;6.70;99.90;;;;;;5037964;28;20060;-70
2022/01/09 08:35:15;;;;;;;19.27;2.03;;;6.60;99.90;;;;;;5043742;28;20099;-70
2022/01/09 08:37:42;;;;;;;14.25;1.80;;;6.80;99.90;;;;;;5036708;28;20197;-71
2022/01/09 08:40:11;;;;;;;25.02;5.68;;;6.90;99.90;;;;;;5038283;28;20036;-70
2022/01/09 08:42:37;;;;;;;13.02;1.80;;;;;;;;;;5039992;28;20060;-69
2022/01/09 08:45:03;;;;;;;17.77;2.28;;;7.10;99.90;;;;;;5037231;28;20129;-69
2022/01/09 08:47:29;;;;;;;16.88;2.45;;;7.50;99.90;;;;;;5042559;28;20029;-69
2022/01/09 08:49:55;;;;;;;14.15;2.15;;;;;;;;;;5032660;28;20021;-72
2022/01/09 08:52:21;;;;;;;17.95;2.38;;;7.10;99.90;;;;;;5039374;28;20547;-73
2022/01/09 08:54:50;;;;;;;12.27;2.33;;;;;;;;;;5040437;28;20078;-73
2022/01/09 08:57:16;;;;;;;15.15;2.58;;;10.30;99.90;;;;;;5034946;28;20450;-72
2022/01/09 08:59:42;;;;;;;15.35;2.40;;;11.00;99.90;;;;;;5028212;28;20036;-68
2022/01/09 09:02:08;;;;;;;17.08;3.53;;;12.40;98.30;;;;;;5037213;28;20469;-69
2022/01/09 09:04:34;;;;;;;15.68;3.10;;;13.70;99.90;;;;;;5044086;28;20024;-69
2022/01/09 09:07:00;;;;;;;13.40;1.90;;;;;;;;;;5043624;28;20582;-69
2022/01/09 09:09:26;;;;;;;11.07;2.00;;;11.70;99.90;;;;;;5037810;28;20018;-69
2022/01/09 09:11:52;;;;;;;13.05;2.28;;;;;;;;;;5046431;28;20036;-69
2022/01/09 09:14:18;;;;;;;15.40;1.92;;;10.70;99.90;;;;;;5041857;28;20511;-68
2022/01/09 09:16:44;;;;;;;14.13;2.10;;;;;;;;;;5037257;28;20224;-68
2022/01/09 09:19:09;;;;;;;9.45;1.83;;;10.00;99.90;;;;;;5038461;28;20121;-69
2022/01/09 09:21:35;;;;;;;15.57;2.08;;;9.80;99.90;;;;;;5035474;28;20112;-68
2022/01/09 09:24:02;;;;;;;13.75;1.80;;;;;;;;;;5044449;28;20520;-68
2022/01/09 09:26:27;;;;;;;14.30;2.20;;;10.50;99.90;;;;;;5040220;28;20035;-71
2022/01/09 09:28:54;;;;;;;14.15;1.83;;;8.80;99.90;;;;;;5048506;28;20029;-71
2022/01/09 09:31:20;;;;;;;14.40;2.50;;;;;;;;;;5036950;28;20049;-70
2022/01/09 09:33:46;;;;;;;14.45;2.58;;;;;;;;;;5042277;28;20038;-69
2022/01/09 09:36:12;;;;;;;14.73;2.28;;;11.30;99.90;;;;;;5046317;28;20025;-70
2022/01/09 09:38:38;;;;;;;15.38;2.00;;;10.30;99.90;;;;;;5046732;28;20120;-69
2022/01/09 09:41:04;;;;;;;9.85;1.92;;;11.00;99.90;;;;;;5038569;28;20026;-70
2022/01/09 09:43:30;;;;;;;13.43;2.22;;;;;;;;;;5039834;28;20055;-73
2022/01/09 09:45:56;;;;;;;13.88;2.33;;;;;;;;;;5040577;28;20024;-71
2022/01/09 09:48:22;;;;;;;15.98;2.67;;;10.50;99.90;;;;;;5042144;28;20711;-73
2022/01/09 09:50:48;;;;;;;13.30;1.92;;;10.70;99.90;;;;;;5049422;28;20136;-73
2022/01/09 09:53:15;;;;;;;14.05;2.30;;;;;;;;;;5044948;28;20079;-72
2022/01/09 09:55:44;;;;;;;17.48;2.35;;;10.80;99.90;;;;;;5045603;28;20055;-72
2022/01/09 09:58:11;;;;;;;13.10;2.17;;;9.40;99.90;;;;;;5036014;28;20029;-72
2022/01/09 10:00:39;;;;;;;13.82;2.40;;;11.60;99.90;;;;;;5043919;28;20112;-72
2022/01/09 10:03:05;;;;;;;14.98;2.17;;;8.70;99.90;;;;;;5047525;28;20040;-72
2022/01/09 10:05:36;;;;;;;15.35;2.28;;;9.50;99.90;;;;;;5047416;28;20029;-72
2022/01/09 10:08:10;;;;;;;15.48;2.15;;;11.80;99.90;;;;;;5038266;28;20113;-72
2022/01/09 10:10:38;;;;;;;13.68;2.10;;;11.30;99.90;;;;;;5040833;28;20017;-72
2022/01/09 10:13:15;;;;;;;14.00;2.17;;;11.60;99.90;;;;;;5037161;28;20036;-72
2022/01/09 10:15:47;;;;;;;10.73;2.15;;;11.80;99.90;;;;;;5036126;28;20028;-72
2022/01/09 10:18:14;;;;;;;16.92;2.28;;;12.20;99.90;;;;;;5042551;28;20072;-70
2022/01/09 10:20:40;;;;;;;13.52;2.10;;;11.60;99.90;;;;;;5044568;28;20132;-73
2022/01/09 10:23:06;;;;;;;14.45;2.15;;;13.50;99.90;;;;;;5041603;28;20112;-72
2022/01/09 10:25:35;;;;;;;16.42;2.47;;;13.70;99.90;;;;;;5042070;28;20112;-72
2022/01/09 10:28:12;;;;;;;16.40;2.55;;;13.10;99.90;;;;;;5038500;28;20034;-72
2022/01/09 10:30:44;;;;;;;16.15;2.53;;;12.90;96.90;;;;;;5035134;28;20441;-72
2022/01/09 10:33:16;;;;;;;18.00;3.40;;;13.30;99.90;;;;;;5042336;28;20404;-72
2022/01/09 10:35:44;;;;;;;22.88;6.13;;;14.30;99.90;;;;;;5045791;28;20043;-73
2022/01/09 10:38:13;;;;;;;17.75;5.95;;;14.90;99.90;;;;;;5040402;28;20061;-74
2022/01/09 10:40:41;;;;;;;17.85;6.13;;;13.10;98.10;;;;;;5041340;28;20038;-74
2022/01/09 10:43:10;;;;;;;14.13;4.25;;;15.00;86.10;;;;;;5045382;28;20113;-75
2022/01/09 10:45:41;;;;;;;18.20;5.03;;;15.30;81.20;;;;;;5049218;28;20024;-74
2022/01/09 10:48:19;;;;;;;18.73;4.20;;;15.30;82.10;;;;;;5047291;28;20037;-74
2022/01/09 10:50:46;;;;;;;29.42;13.27;;;16.60;91.60;;;;;;5047033;28;20096;-79
2022/01/09 10:53:38;;;;;;;14.85;2.67;;;16.80;89.90;;;;;;5050280;28;20021;-75
2022/01/09 10:56:07;;;;;;;13.68;2.88;;;14.40;82.10;;;;;;5042530;28;20113;-76
2022/01/09 10:58:39;;;;;;;23.83;10.27;;;15.20;77.70;;;;;;5042108;28;20024;-73
2022/01/09 11:01:21;;;;;;;20.08;6.43;;;15.20;87.00;;;;;;5052897;28;20046;-75
2022/01/09 11:03:53;;;;;;;13.27;2.70;;;16.60;93.90;;;;;;5036801;28;20604;-70
2022/01/09 11:06:20;;;;;;;19.77;7.78;;;13.80;94.60;;;;;;5041886;28;20058;-73
2022/01/09 11:08:47;;;;;;;19.50;6.13;;;15.20;91.60;;;;;;5040444;28;20041;-72
2022/01/09 11:11:23;;;;;;;14.02;2.80;;;14.10;83.10;;;;;;5037096;28;20029;-72
2022/01/09 11:13:51;;;;;;;15.07;2.17;;;;;;;;;;5041815;28;20025;-72
2022/01/09 11:16:32;;;;;;;15.95;7.63;;;;;;;;;;5038526;28;20493;-72
2022/01/09 11:19:03;;;;;;;18.83;8.40;;;16.30;83.40;;;;;;5040523;28;20061;-73
2022/01/09 11:21:29;;;;;;;14.40;6.03;;;15.90;94.60;;;;;;5037836;28;20044;-72
2022/01/09 11:24:32;;;;;;;15.90;8.07;;;16.30;95.70;;;;;;5038645;28;20039;-72
2022/01/09 11:27:22;;;;;;;29.42;17.00;;;14.60;79.40;;;;;;5033403;28;20036;-73
2022/01/09 11:30:06;;;;;;;12.52;2.90;;;15.40;86.60;;;;;;5036962;28;20057;-71
2022/01/09 11:33:06;;;;;;;15.68;7.13;;;16.00;87.30;;;;;;5041608;28;20163;-72
2022/01/09 11:35:52;;;;;;;8.98;2.95;;;15.90;96.90;;;;;;5043225;28;20032;-71
2022/01/09 11:38:45;;;;;;;8.25;1.98;;;15.40;91.00;;;;;;5042187;28;20046;-75
2022/01/09 11:41:33;;;;;;;32.35;22.00;;;14.30;81.30;;;;;;5045638;28;20071;-71
2022/01/09 11:43:59;;;;;;;10.48;3.38;;;;;;;;;;5046366;28;20040;-70
2022/01/09 11:46:27;;;;;;;11.30;2.60;;;13.20;85.00;;;;;;5034700;28;20441;-70
2022/01/09 11:48:53;;;;;;;11.45;3.22;;;14.90;95.80;;;;;;5041339;28;20060;-69
2022/01/09 11:51:27;;;;;;;10.63;3.40;;;13.40;89.70;;;;;;5043565;28;20532;-71
2022/01/09 11:54:08;;;;;;;9.13;3.58;;;13.20;90.60;;;;;;5042699;28;20021;-72
2022/01/09 11:56:52;;;;;;;14.73;4.80;;;13.60;99.90;;;;;;5035630;28;20029;-75
2022/01/09 11:59:23;;;;;;;11.18;3.45;;;12.80;92.80;;;;;;5037262;28;20029;-75
2022/01/09 12:01:51;;;;;;;18.13;5.78;;;12.70;93.80;;;;;;5043026;28;20446;-72
2022/01/09 12:04:35;;;;;;;12.45;3.90;;;13.90;99.90;;;;;;5042541;28;20095;-74
2022/01/09 12:07:15;;;;;;;20.95;11.50;;;11.30;95.80;;;;;;5040808;28;20066;-76
2022/01/09 12:09:45;;;;;;;15.95;6.85;;;12.50;96.40;;;;;;5042520;28;20491;-73
2022/01/09 12:12:19;;;;;;;14.02;3.28;;;12.40;97.00;;;;;;5041380;28;20037;-74
2022/01/09 12:14:53;;;;;;;14.10;5.07;;;12.50;97.20;;;;;;5040028;28;20026;-74
2022/01/09 12:17:28;;;;;;;13.75;3.50;;;13.70;99.90;;;;;;5040688;28;20025;-73
2022/01/09 12:20:07;;;;;;;12.10;3.20;;;10.50;99.90;;;;;;5035214;28;20036;-72
2022/01/09 12:22:45;;;;;;;19.13;6.88;;;12.90;96.40;;;;;;5035919;28;20026;-72
2022/01/09 12:25:24;;;;;;;15.20;4.15;;;13.50;99.90;;;;;;5032876;28;20021;-71
2022/01/09 12:27:56;;;;;;;16.98;2.90;;;12.90;96.20;;;;;;5037870;28;20692;-70
2022/01/09 12:30:36;;;;;;;34.95;12.13;;;13.00;96.00;;;;;;5043723;28;20017;-71
2022/01/09 12:33:06;;;;;;;17.45;4.32;;;14.20;95.70;;;;;;5039217;28;20076;-72
2022/01/09 12:35:37;;;;;;;16.35;3.30;;;13.10;95.00;;;;;;5037411;28;20036;-72
2022/01/09 12:38:03;;;;;;;23.90;8.40;;;;;;;;;;5049030;28;20029;-71
2022/01/09 12:40:35;;;;;;;31.20;10.32;;;13.20;95.00;;;;;;5052610;28;20029;-70
2022/01/09 12:43:02;;;;;;;20.70;5.93;;;13.20;95.50;;;;;;5040702;28;20033;-74
2022/01/09 12:45:43;;;;;;;19.52;5.25;;;13.00;96.20;;;;;;5044586;28;20028;-72
2022/01/09 12:48:29;;;;;;;17.35;3.60;;;12.90;97.10;;;;;;5035712;28;20029;-73
2022/01/09 12:51:14;;;;;;;14.77;3.00;;;12.70;96.80;;;;;;5042296;28;20044;-72
2022/01/09 12:53:48;;;;;;;25.42;7.60;;;12.60;97.10;;;;;;5033948;28;20036;-74
2022/01/09 12:56:24;;;;;;;20.10;6.53;;;12.50;99.90;;;;;;5044210;28;20029;-74
2022/01/09 12:58:55;;;;;;;16.58;5.47;;;12.30;97.80;;;;;;5049840;28;20021;-72
2022/01/09 13:01:33;;;;;;;12.77;3.50;;;12.10;98.40;;;;;;5046520;28;20049;-74
2022/01/09 13:04:11;;;;;;;14.63;2.38;;;12.00;98.70;;;;;;5044547;28;20439;-73
2022/01/09 13:06:38;;;;;;;19.00;5.50;;;11.90;99.70;;;;;;5039759;28;20056;-73
2022/01/09 13:09:11;;;;;;;20.20;9.60;;;12.20;99.90;;;;;;5043897;28;20030;-73
2022/01/09 13:11:38;;;;;;;23.27;7.53;;;11.70;99.90;;;;;;5047627;28;20017;-74